Time;durP1;ratioP1;P1;durP2;ratioP2;P2;SDS_P1;SDS_P2;PMS_P1;PMS_P2;Temp;Humidity;BMP_temperature;BMP_pressure;BME280_temperature;BME280_humidity;BME280_pressure;Samples;Min_cycle;Max_cycle;Signal;HPM_P1;HPM_P2
2022/04/23 00:01:31;;;;;;;3.85;2.75;;;13.40;46.00;;;;;;4974199;28;20023;-85
2022/04/23 00:03:58;;;;;;;4.45;2.67;;;13.40;46.10;;;;;;4969576;28;20038;-85
2022/04/23 00:06:23;;;;;;;3.42;2.30;;;13.40;46.20;;;;;;4956189;28;20039;-86
2022/04/23 00:08:49;;;;;;;4.53;2.53;;;13.30;46.00;;;;;;4968983;28;20051;-83
2022/04/23 00:11:15;;;;;;;4.45;2.38;;;13.30;46.10;;;;;;4964518;28;20090;-85
2022/04/23 00:13:41;;;;;;;3.30;2.25;;;13.30;46.20;;;;;;4983100;28;20189;-85
2022/04/23 00:16:07;;;;;;;5.55;3.38;;;13.30;46.20;;;;;;4966485;28;20059;-79
2022/04/23 00:18:34;;;;;;;6.85;3.08;;;13.20;46.70;;;;;;4974317;28;20228;-85
2022/04/23 00:21:00;;;;;;;4.85;2.60;;;13.20;46.20;;;;;;4976313;28;20023;-87
2022/04/23 00:23:27;;;;;;;5.07;2.95;;;13.20;46.20;;;;;;4976254;28;20024;-85
2022/04/23 00:25:54;;;;;;;4.07;2.63;;;13.20;46.20;;;;;;4976016;28;20030;-89
2022/04/23 00:28:20;;;;;;;3.63;2.75;;;13.20;46.30;;;;;;4969802;28;20043;-88
2022/04/23 00:30:46;;;;;;;3.83;2.80;;;13.10;46.10;;;;;;4956056;28;20053;-89
2022/04/23 00:33:12;;;;;;;5.28;3.00;;;13.10;46.20;;;;;;4955031;28;20031;-88
2022/04/23 00:35:38;;;;;;;3.90;2.85;;;13.10;46.20;;;;;;4952995;28;20098;-88
2022/04/23 00:38:06;;;;;;;4.18;3.58;;;13.10;46.20;;;;;;4950686;28;20066;-88
2022/04/23 00:40:33;;;;;;;3.20;2.50;;;13.10;46.30;;;;;;4949807;29;20030;-89
2022/04/23 00:42:59;;;;;;;3.80;2.70;;;13.10;46.30;;;;;;4950202;28;20033;-87
2022/04/23 00:45:27;;;;;;;4.80;3.20;;;13.10;46.30;;;;;;4951309;28;20027;-89
2022/04/23 00:47:54;;;;;;;3.22;2.55;;;13.00;46.20;;;;;;4949499;28;20066;-89
2022/04/23 00:50:21;;;;;;;3.72;2.83;;;13.00;46.20;;;;;;4955775;28;20036;-88
2022/04/23 00:53:07;;;;;;;3.42;2.78;;;13.00;46.30;;;;;;4940665;29;20110;-88
2022/04/23 00:55:33;;;;;;;6.28;2.80;;;13.00;46.40;;;;;;4949144;28;20045;-88
2022/04/23 00:58:00;;;;;;;5.65;2.88;;;13.00;46.40;;;;;;4961029;28;20040;-88
2022/04/23 01:00:26;;;;;;;4.85;2.70;;;13.00;46.40;;;;;;4949650;29;20031;-88
2022/04/23 01:02:55;;;;;;;3.75;2.55;;;12.90;46.30;;;;;;4950472;28;20042;-88
2022/04/23 01:05:25;;;;;;;3.25;2.95;;;12.90;46.40;;;;;;4930566;29;20063;-89
2022/04/23 01:07:52;;;;;;;5.00;3.28;;;12.90;46.40;;;;;;4948907;29;20065;-86
2022/04/23 01:10:19;;;;;;;6.45;2.92;;;12.90;46.40;;;;;;4952929;28;20066;-86
2022/04/23 01:12:46;;;;;;;8.57;3.58;;;12.90;46.50;;;;;;4943831;28;20074;-87
2022/04/23 01:15:14;;;;;;;3.28;2.80;;;12.90;46.60;;;;;;4949421;28;20035;-84
2022/04/23 01:17:41;;;;;;;5.63;3.35;;;12.90;46.60;;;;;;4947658;28;20122;-83
2022/04/23 01:20:15;;;;;;;5.30;3.33;;;12.80;46.50;;;;;;4958438;28;20098;-85
2022/04/23 01:22:42;;;;;;;3.92;3.47;;;12.80;46.60;;;;;;4935586;28;20365;-85
2022/04/23 01:25:12;;;;;;;4.85;3.13;;;12.80;46.60;;;;;;4939012;29;20035;-84
2022/04/23 01:27:39;;;;;;;4.72;3.58;;;12.70;46.60;;;;;;4939334;28;20036;-87
2022/04/23 01:30:07;;;;;;;5.93;3.45;;;12.70;47.20;;;;;;4950876;28;20410;-86
2022/04/23 01:32:34;;;;;;;8.77;4.88;;;12.70;46.70;;;;;;4949733;29;20027;-86
2022/04/23 01:35:00;;;;;;;5.07;3.33;;;12.70;46.70;;;;;;4949851;29;20039;-86
2022/04/23 01:37:26;;;;;;;7.25;4.38;;;12.60;46.70;;;;;;4951287;29;20569;-86
2022/04/23 01:39:52;;;;;;;5.75;3.92;;;12.60;46.70;;;;;;4960121;28;20035;-86
2022/04/23 01:42:19;;;;;;;5.82;4.47;;;12.60;46.70;;;;;;4947417;28;20124;-85
2022/04/23 01:44:50;;;;;;;7.13;4.10;;;12.50;46.70;;;;;;4941370;29;20101;-85
2022/04/23 01:47:17;;;;;;;6.18;3.85;;;12.50;46.70;;;;;;4953572;28;20059;-85
2022/04/23 01:49:44;;;;;;;5.70;4.07;;;12.50;46.80;;;;;;4963975;28;20112;-85
2022/04/23 01:52:11;;;;;;;6.53;3.97;;;12.50;46.80;;;;;;4950358;29;20082;-85
2022/04/23 01:54:42;;;;;;;5.63;4.68;;;12.50;46.90;;;;;;4955211;29;20542;-85
2022/04/23 01:57:07;;;;;;;7.10;4.20;;;12.50;46.90;;;;;;4950626;28;20031;-85
2022/04/23 01:59:33;;;;;;;5.05;3.92;;;12.50;47.00;;;;;;4945264;28;20390;-85
2022/04/23 02:02:00;;;;;;;5.97;4.40;;;12.50;47.10;;;;;;4935710;29;20046;-86
2022/04/23 02:04:26;;;;;;;4.13;3.70;;;12.50;47.10;;;;;;4956974;28;20027;-89
2022/04/23 02:06:53;;;;;;;6.50;3.83;;;12.50;47.10;;;;;;4953993;28;20078;-88
2022/04/23 02:09:19;;;;;;;5.72;4.05;;;12.50;47.20;;;;;;4966772;28;20046;-89
2022/04/23 02:11:45;;;;;;;7.78;4.55;;;12.50;47.90;;;;;;4948064;28;20032;-88
2022/04/23 02:14:10;;;;;;;5.30;4.05;;;12.40;47.20;;;;;;4956973;28;20507;-89
2022/04/23 02:16:36;;;;;;;9.30;5.22;;;12.40;47.20;;;;;;4950126;28;20435;-86
2022/04/23 02:19:03;;;;;;;8.55;4.82;;;12.40;47.90;;;;;;4966376;28;20031;-87
2022/04/23 02:21:30;;;;;;;8.18;4.40;;;12.40;47.40;;;;;;4951680;28;20027;-85
2022/04/23 02:23:57;;;;;;;7.22;4.28;;;12.40;47.40;;;;;;4965853;28;20420;-86
2022/04/23 02:26:23;;;;;;;8.75;4.57;;;12.30;47.30;;;;;;4961053;28;20086;-88
2022/04/23 02:28:50;;;;;;;7.65;4.28;;;12.30;47.40;;;;;;4952962;28;20050;-88
2022/04/23 02:31:16;;;;;;;9.30;4.82;;;12.30;47.50;;;;;;4970283;28;20027;-87
2022/04/23 02:33:44;;;;;;;6.97;4.38;;;12.30;47.60;;;;;;4954122;29;20035;-87
2022/04/23 02:36:11;;;;;;;7.38;4.30;;;12.30;47.70;;;;;;4951365;29;20035;-87
2022/04/23 02:38:41;;;;;;;5.43;4.43;;;12.20;47.60;;;;;;4947420;29;20039;-87
2022/04/23 02:41:11;;;;;;;7.38;5.05;;;12.20;47.70;;;;;;4970330;28;20103;-87
2022/04/23 02:43:41;;;;;;;6.20;4.82;;;12.20;47.80;;;;;;4952675;28;20430;-87
2022/04/23 02:46:07;;;;;;;6.72;4.88;;;12.20;47.80;;;;;;4954385;28;20570;-87
2022/04/23 02:48:35;;;;;;;8.30;5.05;;;12.10;47.70;;;;;;4942106;28;20078;-87
2022/04/23 02:51:02;;;;;;;8.30;5.38;;;12.20;47.90;;;;;;4954789;28;20058;-88
2022/04/23 02:53:29;;;;;;;8.25;5.07;;;12.10;47.70;;;;;;4952995;28;20035;-86
2022/04/23 02:55:56;;;;;;;11.27;5.85;;;12.10;47.80;;;;;;4957873;28;20042;-87
2022/04/23 02:58:27;;;;;;;5.85;5.00;;;12.10;47.80;;;;;;4968052;28;20117;-87
2022/04/23 03:00:53;;;;;;;6.63;4.63;;;12.10;47.90;;;;;;4952955;28;20035;-87
2022/04/23 03:03:20;;;;;;;7.82;5.20;;;12.10;47.90;;;;;;4957864;28;20114;-85
2022/04/23 03:05:46;;;;;;;11.63;5.35;;;12.10;48.00;;;;;;4952794;29;20027;-86
2022/04/23 03:08:14;;;;;;;7.00;5.13;;;12.20;48.20;;;;;;4952022;29;20043;-86
2022/04/23 03:10:41;;;;;;;9.70;6.00;;;12.10;48.00;;;;;;4935708;29;20126;-86
2022/04/23 03:13:08;;;;;;;8.70;5.35;;;12.10;48.00;;;;;;4950399;29;20257;-87
2022/04/23 03:15:35;;;;;;;10.20;5.53;;;12.10;48.10;;;;;;4948910;29;20032;-88
2022/04/23 03:18:12;;;;;;;7.85;4.95;;;12.10;48.10;;;;;;4951198;28;20027;-87
2022/04/23 03:20:38;;;;;;;10.05;5.00;;;12.10;48.20;;;;;;4954072;28;20059;-86
2022/04/23 03:23:05;;;;;;;11.20;6.00;;;12.10;48.20;;;;;;4953755;28;20033;-86
2022/04/23 03:25:32;;;;;;;7.57;4.82;;;12.10;48.30;;;;;;4951988;28;20052;-87
2022/04/23 03:27:59;;;;;;;7.60;5.25;;;12.10;48.40;;;;;;4953235;28;20503;-86
2022/04/23 03:30:28;;;;;;;6.50;5.05;;;12.10;48.50;;;;;;4951712;28;20042;-86
2022/04/23 03:32:54;;;;;;;8.82;5.85;;;12.10;48.50;;;;;;4933059;29;20098;-86
2022/04/23 03:35:21;;;;;;;10.13;5.68;;;12.10;48.60;;;;;;4934531;29;20510;-87
2022/04/23 03:37:48;;;;;;;8.85;5.75;;;12.00;48.50;;;;;;4964094;28;20042;-88
2022/04/23 03:40:15;;;;;;;9.43;5.93;;;12.00;48.50;;;;;;4946145;28;20055;-87
2022/04/23 03:42:42;;;;;;;8.25;5.82;;;12.00;48.60;;;;;;4949271;28;20039;-88
2022/04/23 03:45:11;;;;;;;9.38;5.88;;;12.00;48.70;;;;;;4946325;29;20019;-88
2022/04/23 03:47:44;;;;;;;7.97;5.25;;;12.00;48.70;;;;;;4934574;29;20261;-88
2022/04/23 03:50:11;;;;;;;8.10;5.68;;;12.00;48.90;;;;;;4959190;29;20041;-88
2022/04/23 03:52:37;;;;;;;7.82;6.00;;;12.00;48.90;;;;;;4977204;28;20110;-88
2022/04/23 03:55:04;;;;;;;7.72;5.65;;;12.00;48.90;;;;;;4963486;28;20035;-85
2022/04/23 03:57:31;;;;;;;11.35;6.40;;;12.00;49.00;;;;;;4973463;28;20066;-86
2022/04/23 03:59:56;;;;;;;8.45;5.93;;;12.00;49.00;;;;;;4966010;28;20107;-87
2022/04/23 04:02:23;;;;;;;11.60;7.25;;;12.00;49.10;;;;;;4955811;28;20031;-88
2022/04/23 04:04:49;;;;;;;12.52;7.22;;;12.00;49.10;;;;;;4953312;29;20020;-88
2022/04/23 04:07:18;;;;;;;9.07;5.80;;;12.00;49.20;;;;;;4955275;28;20039;-86
2022/04/23 04:09:44;;;;;;;11.05;6.22;;;11.90;49.10;;;;;;4953145;29;20042;-87
2022/04/23 04:12:10;;;;;;;8.90;6.05;;;11.90;49.10;;;;;;4947361;28;20438;-87
2022/04/23 04:14:43;;;;;;;10.52;6.70;;;11.90;49.20;;;;;;4936668;29;20042;-87
2022/04/23 04:17:10;;;;;;;10.88;6.50;;;11.90;49.20;;;;;;4953509;28;20153;-88
2022/04/23 04:19:36;;;;;;;9.50;6.35;;;11.90;49.30;;;;;;4954157;28;20027;-89
2022/04/23 04:22:03;;;;;;;10.63;7.00;;;11.90;50.00;;;;;;4954305;28;20041;-88
2022/04/23 04:24:30;;;;;;;14.45;7.55;;;11.90;49.50;;;;;;4970326;28;20177;-88
2022/04/23 04:26:58;;;;;;;11.20;7.32;;;11.90;49.60;;;;;;4952972;28;20047;-87
2022/04/23 04:29:25;;;;;;;10.05;7.57;;;11.80;49.50;;;;;;4951547;29;20038;-88
2022/04/23 04:31:51;;;;;;;13.50;7.95;;;11.80;49.60;;;;;;4953356;28;20035;-88
2022/04/23 04:34:18;;;;;;;12.38;7.03;;;11.80;49.70;;;;;;4967647;28;20098;-86
2022/04/23 04:36:45;;;;;;;9.35;6.78;;;11.70;49.60;;;;;;4953153;28;20085;-88
2022/04/23 04:39:11;;;;;;;9.23;7.65;;;11.80;49.90;;;;;;4950775;28;20550;-85
2022/04/23 04:41:37;;;;;;;11.27;8.15;;;11.80;50.00;;;;;;4952941;28;20038;-85
2022/04/23 04:44:07;;;;;;;9.75;7.32;;;11.80;50.00;;;;;;4952847;28;20066;-89
2022/04/23 04:46:34;;;;;;;13.73;7.22;;;11.80;50.10;;;;;;4951725;29;20571;-87
2022/04/23 04:49:00;;;;;;;11.50;7.50;;;11.80;50.20;;;;;;4957200;28;20034;-86
2022/04/23 04:51:26;;;;;;;11.68;6.63;;;11.80;50.30;;;;;;4949549;28;20031;-88
2022/04/23 04:53:52;;;;;;;14.60;7.72;;;11.80;50.30;;;;;;4932948;29;20062;-87
2022/04/23 04:56:18;;;;;;;11.82;8.32;;;11.80;50.40;;;;;;4935441;29;20563;-87
2022/04/23 04:58:45;;;;;;;14.30;8.88;;;11.80;50.40;;;;;;4930646;29;20031;-87
2022/04/23 05:01:11;;;;;;;18.77;9.05;;;11.80;50.50;;;;;;4934862;28;20062;-88
2022/04/23 05:03:39;;;;;;;11.45;7.55;;;11.80;50.50;;;;;;4947324;28;20059;-86
2022/04/23 05:06:08;;;;;;;10.40;8.60;;;11.80;50.60;;;;;;4949393;28;20487;-86
2022/04/23 05:08:35;;;;;;;13.18;7.40;;;11.90;51.40;;;;;;4954937;28;20142;-86
2022/04/23 05:11:02;;;;;;;11.98;9.02;;;11.80;50.70;;;;;;4949774;29;20428;-85
2022/04/23 05:13:28;;;;;;;18.98;9.48;;;11.90;50.90;;;;;;4943308;29;20035;-88
2022/04/23 05:15:55;;;;;;;14.50;8.85;;;11.90;51.00;;;;;;4925841;29;20103;-84
2022/04/23 05:18:21;;;;;;;12.13;7.95;;;11.90;51.60;;;;;;4954327;28;20038;-86
2022/04/23 05:20:46;;;;;;;12.38;8.88;;;11.90;51.00;;;;;;4941348;28;20050;-85
2022/04/23 05:23:13;;;;;;;11.43;8.52;;;11.90;51.00;;;;;;4951510;28;20035;-88
2022/04/23 05:25:39;;;;;;;13.32;8.93;;;11.90;51.10;;;;;;4949302;28;20035;-86
2022/04/23 05:28:05;;;;;;;13.90;8.80;;;11.90;51.20;;;;;;4947909;28;20039;-87
2022/04/23 05:30:31;;;;;;;13.07;9.18;;;11.90;51.20;;;;;;4952599;28;20038;-86
2022/04/23 05:32:57;;;;;;;11.50;9.52;;;12.00;51.40;;;;;;4947375;28;20043;-86
2022/04/23 05:35:22;;;;;;;14.32;9.32;;;12.00;51.50;;;;;;4945300;28;20174;-87
2022/04/23 05:37:48;;;;;;;16.83;9.23;;;12.00;51.50;;;;;;4947883;28;20394;-86
2022/04/23 05:40:14;;;;;;;13.15;9.38;;;12.00;51.50;;;;;;4948707;28;20039;-86
2022/04/23 05:42:40;;;;;;;14.35;9.25;;;12.10;51.70;;;;;;4945757;28;20042;-86
2022/04/23 05:45:07;;;;;;;11.98;9.20;;;12.10;51.70;;;;;;4948258;28;20038;-85
2022/04/23 05:47:32;;;;;;;12.15;9.27;;;12.10;51.80;;;;;;4957339;28;20168;-87
2022/04/23 05:49:58;;;;;;;14.57;10.18;;;12.10;51.80;;;;;;4934608;29;20034;-85
2022/04/23 05:52:24;;;;;;;14.50;9.48;;;12.10;51.80;;;;;;4944285;28;20027;-84
2022/04/23 05:54:50;;;;;;;13.85;9.50;;;12.20;52.00;;;;;;4945653;29;20531;-85
2022/04/23 05:57:16;;;;;;;12.95;9.48;;;12.20;52.00;;;;;;4945573;28;20061;-85
2022/04/23 05:59:42;;;;;;;12.90;9.40;;;12.20;52.10;;;;;;4945385;28;20356;-85
2022/04/23 06:02:08;;;;;;;14.80;8.98;;;12.20;52.10;;;;;;4945228;29;20042;-88
2022/04/23 06:04:34;;;;;;;15.65;9.73;;;12.30;52.20;;;;;;4941032;28;20031;-83
2022/04/23 06:07:00;;;;;;;18.45;10.15;;;12.30;52.20;;;;;;4947775;28;20148;-80
2022/04/23 06:09:25;;;;;;;16.30;8.85;;;12.30;52.30;;;;;;4937547;28;20187;-83
2022/04/23 06:11:51;;;;;;;15.85;9.40;;;12.30;52.50;;;;;;4946045;29;20016;-79
2022/04/23 06:14:17;;;;;;;16.13;10.02;;;12.40;52.90;;;;;;4944083;29;20027;-81
2022/04/23 06:16:43;;;;;;;13.18;9.07;;;12.40;53.00;;;;;;4947100;29;20350;-82
2022/04/23 06:19:09;;;;;;;18.13;10.57;;;12.50;53.20;;;;;;4948056;28;20034;-82
2022/04/23 06:21:35;;;;;;;15.02;10.35;;;12.40;53.00;;;;;;4943617;28;20034;-82
2022/04/23 06:24:01;;;;;;;12.82;8.15;;;12.50;53.20;;;;;;4953732;28;20036;-82
2022/04/23 06:26:27;;;;;;;14.57;9.05;;;12.60;53.40;;;;;;4931243;29;20122;-82
2022/04/23 06:28:52;;;;;;;15.23;9.13;;;12.60;53.40;;;;;;4939867;28;20028;-83
2022/04/23 06:31:19;;;;;;;17.52;9.38;;;12.60;53.40;;;;;;4943868;28;20039;-83
2022/04/23 06:33:45;;;;;;;14.02;9.68;;;12.60;53.40;;;;;;4954630;28;20042;-81
2022/04/23 06:36:13;;;;;;;11.00;9.43;;;12.70;53.60;;;;;;4948162;29;20031;-84
2022/04/23 06:38:39;;;;;;;15.68;9.82;;;12.70;53.50;;;;;;4941273;28;20091;-81
2022/04/23 06:41:05;;;;;;;17.00;10.32;;;12.70;53.50;;;;;;4938488;28;20103;-82
2022/04/23 06:43:31;;;;;;;17.67;10.90;;;12.80;53.60;;;;;;4944189;28;20143;-80
2022/04/23 06:46:02;;;;;;;14.82;9.18;;;12.90;53.80;;;;;;4940467;28;20082;-79
2022/04/23 06:48:28;;;;;;;16.25;8.85;;;12.90;53.90;;;;;;4948462;28;20137;-82
2022/04/23 06:51:01;;;;;;;16.20;9.98;;;13.00;54.00;;;;;;4941592;28;20114;-79
2022/04/23 06:53:28;;;;;;;14.52;10.00;;;13.10;54.10;;;;;;4934619;29;20059;-80
2022/04/23 06:55:53;;;;;;;15.30;8.75;;;13.20;53.60;;;;;;4950299;29;20031;-80
2022/04/23 06:58:19;;;;;;;15.68;8.93;;;13.30;54.10;;;;;;4953473;28;20028;-80
2022/04/23 07:00:45;;;;;;;18.33;9.23;;;13.30;54.10;;;;;;4943435;29;20031;-80
2022/04/23 07:03:11;;;;;;;17.38;8.48;;;13.40;54.10;;;;;;4969779;28;20039;-80
2022/04/23 07:05:37;;;;;;;15.30;9.73;;;13.50;54.20;;;;;;4959024;28;20054;-82
2022/04/23 07:08:03;;;;;;;17.20;9.32;;;13.50;54.10;;;;;;4966201;28;20055;-79
2022/04/23 07:10:30;;;;;;;12.20;8.85;;;13.60;54.20;;;;;;4967706;28;20033;-79
2022/04/23 07:12:57;;;;;;;13.20;8.25;;;13.60;54.70;;;;;;4966025;28;20044;-81
2022/04/23 07:15:24;;;;;;;16.23;8.35;;;13.70;54.20;;;;;;4970867;28;20080;-81
2022/04/23 07:17:51;;;;;;;13.57;8.40;;;13.80;54.30;;;;;;4973288;28;20084;-80
2022/04/23 07:20:18;;;;;;;12.90;8.70;;;13.80;54.20;;;;;;4974746;28;20067;-81
2022/04/23 07:24:03;;;;;;;15.45;10.15;;;13.90;54.20;;;;;;4967226;28;20019;-81
2022/04/23 07:25:32;;;;;;;15.65;9.15;;;13.90;54.10;;;;;;4942507;29;20181;-78
2022/04/23 07:27:58;;;;;;;12.60;8.30;;;14.00;54.20;;;;;;4955668;28;20043;-81
2022/04/23 07:30:26;;;;;;;12.40;8.50;;;14.10;54.20;;;;;;4947005;28;20035;-80
2022/04/23 07:32:53;;;;;;;13.48;8.30;;;14.10;54.10;;;;;;4969061;28;20059;-76
2022/04/23 07:38:18;;;;;;;22.75;10.27;;;14.30;54.70;;;;;;4963822;29;20024;-81
2022/04/23 07:40:45;;;;;;;22.15;9.88;;;14.30;54.50;;;;;;4977905;28;20154;-80
2022/04/23 07:43:13;;;;;;;20.77;11.63;;;14.40;54.40;;;;;;4973430;28;20035;-83
2022/04/23 07:45:40;;;;;;;21.15;11.10;;;14.40;54.30;;;;;;4969096;28;20035;-81
2022/04/23 07:48:08;;;;;;;17.40;10.18;;;14.30;54.10;;;;;;4970365;28;20234;-86
2022/04/23 07:50:35;;;;;;;23.48;11.75;;;14.30;54.20;;;;;;4958930;28;20031;-84
2022/04/23 07:53:01;;;;;;;22.15;11.40;;;14.30;54.20;;;;;;4948518;29;20263;-81
2022/04/23 07:55:30;;;;;;;18.23;10.70;;;14.30;54.30;;;;;;4941121;29;20047;-85
2022/04/23 07:57:58;;;;;;;22.40;10.27;;;14.20;54.10;;;;;;4950033;28;20499;-82
2022/04/23 08:00:25;;;;;;;17.42;10.85;;;14.30;54.40;;;;;;4940916;29;20119;-84
2022/04/23 08:02:52;;;;;;;19.00;9.50;;;14.20;54.20;;;;;;4951653;29;20049;-85
2022/04/23 08:05:18;;;;;;;18.13;10.73;;;14.20;54.20;;;;;;4952134;28;20407;-85
2022/04/23 08:07:44;;;;;;;22.95;13.63;;;14.30;54.40;;;;;;4943769;28;20058;-86
2022/04/23 08:10:11;;;;;;;29.20;17.90;;;14.30;54.30;;;;;;4948716;28;20036;-82
2022/04/23 08:12:37;;;;;;;29.83;15.77;;;14.50;54.60;;;;;;4952026;29;20039;-82
2022/04/23 08:15:05;;;;;;;24.00;14.93;;;14.60;55.10;;;;;;4947032;28;20027;-82
2022/04/23 08:17:31;;;;;;;27.63;15.20;;;14.70;54.50;;;;;;4950307;28;20066;-82
2022/04/23 08:19:57;;;;;;;26.77;13.85;;;14.90;54.60;;;;;;4965719;28;20019;-82
2022/04/23 08:22:23;;;;;;;20.15;12.13;;;15.10;54.60;;;;;;4962872;28;20578;-82
2022/04/23 08:24:49;;;;;;;21.88;13.20;;;15.30;54.60;;;;;;4959057;29;20020;-82
2022/04/23 08:27:15;;;;;;;26.50;12.55;;;15.60;54.60;;;;;;4948841;28;20383;-87
2022/04/23 08:32:25;;;;;;;26.92;12.13;;;15.90;54.10;;;;;;4953862;29;20043;-82
2022/04/23 08:34:51;;;;;;;23.75;11.82;;;16.10;54.10;;;;;;4953424;28;20031;-79
2022/04/23 08:37:17;;;;;;;20.60;10.65;;;16.10;53.90;;;;;;4968975;28;20046;-82
2022/04/23 08:39:45;;;;;;;23.08;11.25;;;16.20;54.00;;;;;;4971146;28;20030;-85
2022/04/23 08:42:15;;;;;;;20.48;10.63;;;16.30;54.00;;;;;;4951488;28;20309;-84
2022/04/23 08:44:41;;;;;;;21.60;11.45;;;16.30;53.90;;;;;;4963171;28;20034;-83
2022/04/23 08:47:08;;;;;;;19.80;10.13;;;16.30;53.80;;;;;;4968022;28;20050;-80
2022/04/23 08:49:38;;;;;;;23.27;11.25;;;16.40;53.90;;;;;;4950324;28;20067;-80
2022/04/23 08:52:17;;;;;;;24.55;11.18;;;16.30;53.70;;;;;;4953941;28;20031;-79
2022/04/23 08:54:44;;;;;;;18.83;9.48;;;16.40;54.10;;;;;;4953462;28;20571;-83
2022/04/23 08:57:10;;;;;;;20.52;10.68;;;16.40;54.10;;;;;;4942038;29;20163;-82
2022/04/23 08:59:36;;;;;;;24.25;10.13;;;16.50;54.20;;;;;;4965081;28;20027;-80
2022/04/23 09:02:14;;;;;;;19.88;10.32;;;16.60;54.30;;;;;;4938526;29;20054;-81
2022/04/23 09:04:42;;;;;;;20.50;9.63;;;16.80;54.60;;;;;;4949483;28;20160;-82
2022/04/23 09:07:25;;;;;;;21.08;9.85;;;16.80;54.40;;;;;;4965303;28;20189;-83
2022/04/23 09:09:54;;;;;;;21.92;9.93;;;16.90;54.70;;;;;;4973688;28;20031;-81
2022/04/23 09:12:28;;;;;;;21.88;10.25;;;17.00;54.70;;;;;;4970034;28;20039;-84
2022/04/23 09:15:05;;;;;;;16.27;9.07;;;17.20;55.00;;;;;;4961769;28;20235;-83
2022/04/23 09:25:49;;;;;;;16.00;8.82;;;17.90;55.00;;;;;;4963608;29;20035;-80
2022/04/23 09:28:21;;;;;;;12.20;7.45;;;18.00;55.00;;;;;;4960924;28;20063;-80
2022/04/23 09:30:49;;;;;;;9.55;7.40;;;18.10;55.00;;;;;;4962531;29;20032;-81
2022/04/23 09:33:16;;;;;;;14.13;8.18;;;18.20;55.10;;;;;;4964883;28;20048;-81
2022/04/23 09:35:52;;;;;;;15.93;8.43;;;18.30;55.30;;;;;;4958530;28;20453;-80
2022/04/23 09:38:18;;;;;;;13.60;8.18;;;18.30;55.30;;;;;;4949581;28;20057;-79
2022/04/23 09:40:56;;;;;;;13.60;8.00;;;18.40;55.30;;;;;;4959715;28;20027;-80
2022/04/23 09:43:29;;;;;;;13.35;8.40;;;18.40;55.30;;;;;;4961143;28;20049;-84
2022/04/23 09:46:06;;;;;;;11.02;7.32;;;18.40;55.40;;;;;;4953693;28;20390;-86
2022/04/23 09:48:32;;;;;;;14.85;9.25;;;18.40;55.30;;;;;;4958358;28;20482;-85
2022/04/23 09:50:59;;;;;;;14.68;8.02;;;18.40;55.30;;;;;;4964318;28;20035;-86
2022/04/23 09:53:28;;;;;;;14.20;9.02;;;18.30;55.10;;;;;;4965154;28;20049;-86
2022/04/23 09:56:05;;;;;;;13.32;7.97;;;18.30;55.20;;;;;;4963123;28;20031;-86
2022/04/23 09:58:33;;;;;;;14.85;8.35;;;18.30;55.30;;;;;;4957124;28;20064;-88
2022/04/23 10:01:00;;;;;;;17.17;7.93;;;18.30;55.30;;;;;;4951952;29;20035;-90
2022/04/23 10:03:31;;;;;;;17.08;7.85;;;18.30;55.30;;;;;;4966161;28;20035;-85
2022/04/23 10:05:59;;;;;;;13.25;8.40;;;18.30;55.30;;;;;;4965390;29;20098;-88
2022/04/23 10:08:27;;;;;;;11.85;7.50;;;18.30;55.30;;;;;;4951237;28;20107;-90
2022/04/23 10:11:13;;;;;;;15.82;8.32;;;18.30;55.30;;;;;;4948911;29;20126;-86
2022/04/23 10:13:41;;;;;;;12.73;8.32;;;18.30;55.30;;;;;;4967928;28;20038;-86
2022/04/23 10:16:10;;;;;;;16.17;7.60;;;18.30;55.30;;;;;;4970446;28;20062;-86
2022/04/23 10:18:38;;;;;;;13.20;8.45;;;18.20;55.20;;;;;;4969509;29;20074;-81
2022/04/23 10:21:10;;;;;;;13.70;7.95;;;18.20;55.20;;;;;;4969118;28;20046;-81
2022/04/23 10:24:10;;;;;;;14.15;8.43;;;18.30;55.50;;;;;;4965230;28;20039;-85
2022/04/23 10:26:49;;;;;;;10.68;7.95;;;18.30;55.40;;;;;;4940396;29;20046;-83
2022/04/23 10:29:20;;;;;;;14.25;8.25;;;18.40;55.50;;;;;;4967074;28;20043;-90
2022/04/23 10:32:16;;;;;;;13.82;8.40;;;18.50;55.40;;;;;;4961763;28;20387;-94
2022/04/23 10:34:43;;;;;;;10.73;7.57;;;18.60;55.40;;;;;;4953117;29;20079;-92
2022/04/23 10:37:29;;;;;;;11.35;7.25;;;18.70;55.40;;;;;;4962349;29;20031;-86
2022/04/23 10:39:55;;;;;;;9.13;7.82;;;18.70;55.20;;;;;;4971542;28;20131;-87
2022/04/23 10:42:23;;;;;;;9.93;7.25;;;18.80;55.30;;;;;;4936340;29;20130;-90
2022/04/23 10:44:50;;;;;;;12.18;8.23;;;18.80;55.20;;;;;;4958396;28;20056;-90
2022/04/23 10:47:34;;;;;;;10.82;8.75;;;18.80;55.10;;;;;;4965323;28;20077;-89
2022/04/23 10:50:20;;;;;;;9.82;8.35;;;18.80;55.00;;;;;;4968273;28;20031;-86
2022/04/23 10:52:51;;;;;;;10.88;8.23;;;18.80;55.00;;;;;;4966081;28;20058;-86
2022/04/23 10:55:18;;;;;;;8.85;7.65;;;18.80;55.10;;;;;;4967354;28;20141;-85
2022/04/23 10:57:54;;;;;;;11.50;8.77;;;18.70;55.00;;;;;;4943826;28;20059;-84
2022/04/23 11:00:23;;;;;;;13.45;9.63;;;18.70;55.00;;;;;;4952537;29;20535;-86
2022/04/23 11:03:08;;;;;;;12.38;9.60;;;18.60;54.80;;;;;;4963714;28;20031;-88
2022/04/23 11:13:58;;;;;;;11.25;9.65;;;18.40;54.80;;;;;;4963604;28;20636;-87
2022/04/23 11:16:28;;;;;;;17.77;10.90;;;18.30;54.70;;;;;;4964272;28;20127;-87
2022/04/23 11:18:58;;;;;;;9.70;8.60;;;18.30;54.70;;;;;;4942077;29;20032;-87
2022/04/23 11:21:28;;;;;;;12.90;8.75;;;18.30;54.80;;;;;;4953543;29;20050;-84
2022/04/23 11:23:57;;;;;;;11.55;10.27;;;18.30;54.70;;;;;;4965759;28;20315;-86
2022/04/23 11:26:39;;;;;;;12.95;9.50;;;18.30;54.70;;;;;;4967417;29;20031;-86
2022/04/23 11:29:09;;;;;;;11.00;9.70;;;18.40;54.80;;;;;;4975283;28;20103;-85
2022/04/23 11:31:35;;;;;;;10.50;9.32;;;18.50;54.80;;;;;;4966452;28;20031;-85
2022/04/23 11:34:04;;;;;;;12.50;9.23;;;18.60;54.70;;;;;;4969073;28;20042;-86
2022/04/23 11:36:32;;;;;;;10.60;8.75;;;18.70;54.70;;;;;;4969686;28;20046;-84
2022/04/23 11:39:00;;;;;;;13.57;10.07;;;18.90;54.90;;;;;;4966917;28;20039;-88
2022/04/23 11:41:29;;;;;;;12.32;8.93;;;19.00;54.90;;;;;;4968840;28;20035;-85
2022/04/23 11:43:55;;;;;;;12.35;9.65;;;19.10;54.80;;;;;;4969843;28;20580;-88
2022/04/23 11:46:21;;;;;;;12.82;9.57;;;19.20;54.80;;;;;;4969775;28;20120;-90
2022/04/23 11:48:49;;;;;;;20.85;11.23;;;19.30;54.70;;;;;;4944718;28;20051;-87
2022/04/23 11:51:15;;;;;;;13.60;11.70;;;19.40;54.70;;;;;;4958056;29;20035;-86
2022/04/23 11:54:00;;;;;;;12.05;10.77;;;19.60;54.60;;;;;;4968896;28;20050;-85
2022/04/23 11:56:36;;;;;;;15.70;11.10;;;19.60;54.00;;;;;;4969613;28;20059;-91
2022/04/23 11:59:06;;;;;;;15.38;11.27;;;19.70;54.00;;;;;;4958793;28;20506;-86
2022/04/23 12:01:32;;;;;;;17.98;13.05;;;19.80;54.00;;;;;;4948379;28;20506;-85
2022/04/23 12:03:59;;;;;;;15.32;13.10;;;20.00;53.90;;;;;;4951829;28;20451;-85
2022/04/23 12:06:26;;;;;;;15.48;12.10;;;20.00;53.10;;;;;;4950092;28;20031;-86
2022/04/23 12:09:07;;;;;;;14.25;11.60;;;20.10;52.80;;;;;;4944189;28;20039;-86
2022/04/23 12:11:32;;;;;;;14.82;10.90;;;20.10;52.30;;;;;;4952408;29;20104;-78
2022/04/23 12:14:01;;;;;;;12.60;10.43;;;20.20;52.40;;;;;;4936806;29;20035;-85
2022/04/23 12:16:41;;;;;;;11.48;10.02;;;20.30;52.30;;;;;;4941868;29;20399;-83
2022/04/23 12:19:16;;;;;;;10.27;9.30;;;20.50;52.40;;;;;;4960390;28;20023;-84
2022/04/23 12:21:56;;;;;;;13.82;9.82;;;20.70;52.60;;;;;;4975043;28;20028;-84
2022/04/23 12:24:35;;;;;;;12.35;9.77;;;20.90;52.60;;;;;;4983505;28;20035;-83
2022/04/23 12:27:05;;;;;;;10.35;9.10;;;21.10;52.70;;;;;;4970727;28;20078;-85
2022/04/23 12:40:53;;;;;;;13.90;10.48;;;22.10;52.80;;;;;;4956838;28;20098;-87
2022/04/23 12:43:28;;;;;;;10.95;9.65;;;22.30;52.60;;;;;;4957243;28;20078;-87
2022/04/23 12:46:10;;;;;;;9.68;8.68;;;22.50;52.40;;;;;;4955614;28;20035;-85
2022/04/23 12:48:56;;;;;;;9.52;8.57;;;22.80;52.30;;;;;;4959991;28;20286;-92
2022/04/23 12:51:23;;;;;;;9.93;8.52;;;23.30;52.50;;;;;;4952971;28;20466;-85
2022/04/23 12:53:49;;;;;;;9.35;8.38;;;23.70;52.50;;;;;;4953809;28;20035;-82
2022/04/23 12:56:16;;;;;;;10.07;9.07;;;23.90;52.10;;;;;;4953976;28;20038;-84
2022/04/23 12:58:42;;;;;;;8.65;7.72;;;24.10;52.00;;;;;;4949077;28;20283;-89
2022/04/23 13:01:09;;;;;;;8.90;8.02;;;24.30;51.90;;;;;;4952625;29;20046;-79
2022/04/23 13:03:37;;;;;;;9.02;7.90;;;24.30;51.70;;;;;;4953662;28;20035;-81
2022/04/23 13:06:04;;;;;;;15.63;13.23;;;24.50;51.70;;;;;;4948228;29;20042;-86
2022/04/23 13:11:27;;;;;;;13.27;11.98;;;24.50;50.10;;;;;;4953843;28;20031;-79
2022/04/23 13:14:06;;;;;;;12.95;11.63;;;24.40;49.70;;;;;;4955387;28;20032;-81
2022/04/23 13:16:34;;;;;;;12.65;11.50;;;24.10;48.70;;;;;;4951490;28;20395;-81
2022/04/23 13:19:03;;;;;;;12.07;10.60;;;24.00;49.00;;;;;;4948813;28;20573;-81
2022/04/23 13:21:33;;;;;;;12.45;10.70;;;23.90;48.70;;;;;;4941864;28;20030;-82